createdAt,value
2022-12-17T00:02:34.638Z,80.80
2022-12-17T00:05:19.818Z,80.80
2022-12-17T00:08:05.192Z,80.50
2022-12-17T00:10:50.292Z,80.40
2022-12-17T00:13:39.952Z,80.40
2022-12-17T00:16:26.096Z,80.60
2022-12-17T00:19:11.398Z,80.70
2022-12-17T00:21:56.743Z,80.70
2022-12-17T00:24:42.491Z,80.70
2022-12-17T00:27:27.537Z,80.90
2022-12-17T00:30:12.538Z,80.90
2022-12-17T00:32:57.911Z,80.90
2022-12-17T00:35:43.112Z,80.90
2022-12-17T00:38:34.173Z,80.80
2022-12-17T00:41:19.350Z,80.50
2022-12-17T00:44:04.799Z,80.60
2022-12-17T00:46:50.237Z,80.90
2022-12-17T00:49:35.462Z,80.80
2022-12-17T00:52:20.864Z,80.70
2022-12-17T00:55:06.067Z,80.40
2022-12-17T00:57:51.302Z,80.30
2022-12-17T01:00:37.441Z,80.50
2022-12-17T01:03:28.786Z,80.90
2022-12-17T01:06:14.281Z,80.90
2022-12-17T01:08:59.560Z,81.00
2022-12-17T01:11:44.806Z,81.00
2022-12-17T01:14:30.256Z,80.90
2022-12-17T01:17:15.582Z,80.80
2022-12-17T01:20:00.638Z,80.80
2022-12-17T01:22:46.008Z,81.10
2022-12-17T01:25:31.025Z,81.70
2022-12-17T01:28:16.417Z,81.60
2022-12-17T01:31:01.743Z,81.60
2022-12-17T01:33:47.070Z,81.70
2022-12-17T01:36:32.735Z,81.80
2022-12-17T01:39:18.277Z,81.80
2022-12-17T01:42:03.268Z,81.90
2022-12-17T01:44:57.732Z,81.90
2022-12-17T01:47:45.978Z,82.30
2022-12-17T01:50:33.086Z,82.00
2022-12-17T01:53:21.469Z,82.20
2022-12-17T01:56:07.680Z,82.30
2022-12-17T01:58:54.485Z,82.30
2022-12-17T02:01:40.538Z,82.20
2022-12-17T02:04:27.767Z,82.20
2022-12-17T02:07:47.576Z,82.20
2022-12-17T02:10:43.990Z,82.40
2022-12-17T02:13:46.611Z,82.10
2022-12-17T02:16:38.592Z,82.30
2022-12-17T02:19:33.774Z,82.20
2022-12-17T02:22:27.785Z,82.30
2022-12-17T02:25:21.959Z,82.30
2022-12-17T02:28:09.086Z,82.20
2022-12-17T02:30:55.706Z,82.30
2022-12-17T02:33:40.985Z,82.30
2022-12-17T02:36:27.006Z,82.20
2022-12-17T02:39:12.482Z,82.00
2022-12-17T02:42:06.280Z,82.10
2022-12-17T02:44:53.629Z,81.90
2022-12-17T02:47:40.711Z,82.10
2022-12-17T02:50:27.234Z,82.10
2022-12-17T02:53:13.137Z,81.80
2022-12-17T02:55:58.436Z,81.80
2022-12-17T02:58:43.418Z,81.90
2022-12-17T03:01:28.905Z,82.10
2022-12-17T03:04:14.251Z,82.10
2022-12-17T03:06:59.278Z,82.10
2022-12-17T03:09:44.909Z,82.00
2022-12-17T03:12:29.959Z,81.90
2022-12-17T03:15:15.324Z,81.90
2022-12-17T03:18:00.518Z,82.10
2022-12-17T03:20:46.049Z,82.10
2022-12-17T03:23:31.568Z,82.00
2022-12-17T03:26:20.891Z,82.30
2022-12-17T03:29:07.916Z,82.50
2022-12-17T03:31:53.341Z,82.30
2022-12-17T03:34:38.603Z,82.40
2022-12-17T03:37:24.464Z,82.30
2022-12-17T03:40:09.606Z,82.30
2022-12-17T03:42:54.584Z,82.30
2022-12-17T03:45:40.379Z,82.50
2022-12-17T03:48:31.066Z,82.50
2022-12-17T03:51:16.417Z,82.40
2022-12-17T03:54:03.362Z,82.90
2022-12-17T03:56:49.275Z,82.00
2022-12-17T03:59:34.810Z,81.90
2022-12-17T04:02:20.770Z,82.10
2022-12-17T04:05:06.536Z,81.80
2022-12-17T04:07:52.145Z,81.70
2022-12-17T04:10:37.610Z,81.80
2022-12-17T04:13:43.246Z,82.00
2022-12-17T04:16:31.189Z,82.10
2022-12-17T04:19:20.945Z,82.10
2022-12-17T04:22:06.253Z,82.20
2022-12-17T04:24:51.309Z,82.30
2022-12-17T04:27:36.602Z,82.20
2022-12-17T04:30:22.099Z,82.10
2022-12-17T04:33:07.567Z,82.10
2022-12-17T04:35:52.958Z,81.90
2022-12-17T04:38:38.166Z,81.80
2022-12-17T04:41:28.034Z,81.90
2022-12-17T04:44:13.347Z,81.90
2022-12-17T04:46:58.378Z,81.90
2022-12-17T04:49:43.427Z,81.60
2022-12-17T04:52:28.759Z,81.50
2022-12-17T04:55:14.233Z,81.50
2022-12-17T04:57:59.366Z,81.50
2022-12-17T05:00:44.855Z,81.50
2022-12-17T05:03:32.894Z,81.40
2022-12-17T05:06:18.955Z,81.50
2022-12-17T05:09:06.011Z,81.50
2022-12-17T05:11:51.356Z,81.40
2022-12-17T05:14:36.582Z,81.30
2022-12-17T05:17:22.018Z,81.30
2022-12-17T05:20:07.302Z,81.10
2022-12-17T05:22:52.892Z,81.00
2022-12-17T05:25:38.421Z,81.30
2022-12-17T05:28:23.449Z,81.30
2022-12-17T05:31:13.013Z,81.40
2022-12-17T05:33:58.752Z,81.40
2022-12-17T05:36:44.588Z,81.40
2022-12-17T05:39:37.379Z,81.40
2022-12-17T05:42:22.825Z,81.30
2022-12-17T05:45:07.805Z,81.30
2022-12-17T05:47:54.876Z,81.20
2022-12-17T05:50:39.939Z,80.90
2022-12-17T05:53:25.142Z,80.80
2022-12-17T05:56:11.069Z,80.70
2022-12-17T05:58:57.439Z,80.60
2022-12-17T06:01:42.771Z,80.80
2022-12-17T06:04:28.796Z,80.90
2022-12-17T06:07:14.198Z,81.00
2022-12-17T06:09:59.643Z,81.00
2022-12-17T06:12:44.930Z,80.90
2022-12-17T06:15:30.185Z,81.00
2022-12-17T06:18:17.077Z,81.00
2022-12-17T06:21:03.366Z,81.00
2022-12-17T06:23:48.671Z,81.10
2022-12-17T06:26:33.891Z,81.20
2022-12-17T06:29:19.428Z,81.20
2022-12-17T06:32:04.567Z,81.20
2022-12-17T06:34:49.654Z,81.10
2022-12-17T06:37:34.808Z,81.10
2022-12-17T06:40:19.861Z,81.30
2022-12-17T06:43:17.243Z,81.40
2022-12-17T06:46:02.582Z,81.30
2022-12-17T06:48:48.035Z,81.30
2022-12-17T06:51:33.288Z,81.30
2022-12-17T06:54:18.511Z,81.40
2022-12-17T06:57:03.936Z,81.40
2022-12-17T06:59:49.284Z,81.40
2022-12-17T07:02:34.808Z,81.60
2022-12-17T07:05:20.082Z,81.50
2022-12-17T07:08:05.558Z,81.50
2022-12-17T07:10:51.010Z,81.80
2022-12-17T07:13:37.981Z,81.90
2022-12-17T07:16:23.786Z,82.10
2022-12-17T07:19:08.915Z,82.50
2022-12-17T07:21:54.290Z,82.90
2022-12-17T07:24:39.723Z,82.60
2022-12-17T07:27:24.991Z,82.70
2022-12-17T07:30:10.055Z,82.90
2022-12-17T07:32:55.354Z,83.00
2022-12-17T07:35:40.771Z,83.20
2022-12-17T07:38:27.195Z,83.20
2022-12-17T07:41:12.255Z,82.80
2022-12-17T07:43:57.602Z,83.00
2022-12-17T07:46:43.211Z,82.70
2022-12-17T07:49:28.345Z,83.90
2022-12-17T07:52:13.820Z,83.10
2022-12-17T07:54:58.915Z,83.40
2022-12-17T07:57:44.837Z,83.90
2022-12-17T08:00:31.162Z,83.70
2022-12-17T08:03:18.447Z,83.80
2022-12-17T08:06:04.572Z,83.90
2022-12-17T08:08:50.000Z,84.00
2022-12-17T08:11:35.242Z,83.70
2022-12-17T08:14:20.669Z,84.10
2022-12-17T08:17:05.944Z,84.00
2022-12-17T08:19:51.242Z,84.00
2022-12-17T08:22:56.314Z,83.80
2022-12-17T08:25:41.841Z,84.10
2022-12-17T08:28:49.569Z,84.70
2022-12-17T08:31:32.979Z,85.50
2022-12-17T08:34:18.341Z,84.60
2022-12-17T08:37:03.985Z,84.50
2022-12-17T08:39:49.357Z,84.40
2022-12-17T08:42:34.915Z,84.60
2022-12-17T08:45:20.371Z,84.70
2022-12-17T08:48:05.864Z,85.00
2022-12-17T08:50:51.205Z,84.80
2022-12-17T08:53:56.376Z,84.70
2022-12-17T08:56:41.507Z,85.10
2022-12-17T08:59:26.952Z,84.80
2022-12-17T09:02:12.369Z,84.80
2022-12-17T09:04:58.105Z,84.70
2022-12-17T09:07:43.384Z,84.70
2022-12-17T09:10:30.363Z,84.70
2022-12-17T09:13:20.475Z,84.70
2022-12-17T09:16:11.343Z,84.60
2022-12-17T09:18:56.589Z,84.90
2022-12-17T09:21:42.051Z,84.40
2022-12-17T09:24:28.630Z,84.40
2022-12-17T09:27:13.861Z,84.50
2022-12-17T09:29:59.233Z,84.60
2022-12-17T09:32:44.478Z,84.70
2022-12-17T09:35:29.898Z,84.60
2022-12-17T09:38:16.270Z,84.40
2022-12-17T09:41:07.269Z,84.40
2022-12-17T09:44:31.032Z,84.40
2022-12-17T09:47:27.780Z,84.80
2022-12-17T09:50:13.124Z,84.70
2022-12-17T09:53:00.115Z,84.70
2022-12-17T09:55:52.109Z,85.00
2022-12-17T09:58:43.287Z,85.80
2022-12-17T10:01:40.110Z,85.30
2022-12-17T10:04:38.804Z,85.60
2022-12-17T10:07:32.159Z,85.50
2022-12-17T10:10:21.423Z,85.10
2022-12-17T10:13:06.801Z,85.00
2022-12-17T10:15:52.104Z,84.90
2022-12-17T10:18:38.007Z,85.00
2022-12-17T10:21:26.800Z,85.00
2022-12-17T10:24:24.085Z,85.20
2022-12-17T10:27:09.650Z,84.90
2022-12-17T10:29:55.089Z,84.90
2022-12-17T10:32:44.653Z,85.10
2022-12-17T10:35:35.686Z,85.10
2022-12-17T10:38:37.919Z,85.10
2022-12-17T10:41:23.392Z,85.00
2022-12-17T10:44:08.580Z,85.00
2022-12-17T10:46:53.831Z,86.00
2022-12-17T10:49:42.478Z,86.50
2022-12-17T10:52:50.607Z,86.80
2022-12-17T10:55:54.609Z,86.50
2022-12-17T10:58:54.503Z,86.30
2022-12-17T11:01:44.263Z,85.90
2022-12-17T11:04:44.621Z,85.70
2022-12-17T11:07:36.191Z,85.50
2022-12-17T11:10:23.398Z,85.40
2022-12-17T11:13:16.022Z,85.30
2022-12-17T11:16:07.629Z,85.10
2022-12-17T11:19:28.460Z,84.60
2022-12-17T11:22:18.772Z,84.50
2022-12-17T11:25:34.610Z,84.40
2022-12-17T11:28:55.676Z,84.00
2022-12-17T11:32:01.756Z,83.80
2022-12-17T11:35:10.179Z,83.70
2022-12-17T11:38:34.885Z,83.80
2022-12-17T11:41:47.172Z,83.20
2022-12-17T11:44:42.604Z,83.00
2022-12-17T11:47:54.865Z,83.10
2022-12-17T11:50:52.607Z,82.60
2022-12-17T11:53:54.507Z,82.50
2022-12-17T11:56:44.844Z,82.60
2022-12-17T11:59:42.582Z,82.50
2022-12-17T12:02:55.311Z,82.40
2022-12-17T12:06:08.047Z,82.00
2022-12-17T12:09:03.093Z,81.60
2022-12-17T12:12:24.212Z,81.40
2022-12-17T12:15:28.475Z,81.30
2022-12-17T12:18:28.139Z,81.30
2022-12-17T12:21:16.518Z,81.80
2022-12-17T12:24:23.420Z,80.70
2022-12-17T12:27:20.627Z,80.90
2022-12-17T12:30:06.069Z,81.00
2022-12-17T12:33:09.790Z,80.60
2022-12-17T12:35:57.175Z,80.40
2022-12-17T12:38:49.256Z,80.00
2022-12-17T12:41:37.580Z,79.90
2022-12-17T12:44:35.048Z,79.50
2022-12-17T12:47:28.411Z,79.90
2022-12-17T12:50:33.327Z,79.20
2022-12-17T12:53:19.224Z,79.20
2022-12-17T12:56:04.465Z,79.40
2022-12-17T12:58:52.138Z,79.40
2022-12-17T13:01:39.041Z,80.10
2022-12-17T13:04:54.102Z,79.50
2022-12-17T13:07:27.371Z,79.50
2022-12-17T13:09:56.873Z,79.90
2022-12-17T13:12:45.835Z,79.80
2022-12-17T13:15:22.775Z,80.10
2022-12-17T13:18:19.335Z,80.10
2022-12-17T13:21:04.890Z,80.10
2022-12-17T13:23:35.250Z,80.30
2022-12-17T13:26:30.534Z,80.10
2022-12-17T13:29:10.359Z,80.30
2022-12-17T13:32:01.034Z,80.90
2022-12-17T13:34:52.006Z,81.00
2022-12-17T13:38:12.513Z,81.10
2022-12-17T13:41:03.997Z,81.10
2022-12-17T13:43:40.106Z,81.10
2022-12-17T13:46:07.047Z,81.30
2022-12-17T13:48:33.743Z,81.80
2022-12-17T13:51:05.102Z,81.70
2022-12-17T13:53:34.417Z,81.70
2022-12-17T13:56:01.677Z,81.80
2022-12-17T13:58:33.368Z,81.70
2022-12-17T14:01:11.608Z,81.90
2022-12-17T14:06:30.263Z,82.30
2022-12-17T14:08:58.043Z,82.50
2022-12-17T14:11:44.050Z,82.60
2022-12-17T14:14:28.553Z,82.60
2022-12-17T14:16:55.602Z,82.60
2022-12-17T14:19:23.457Z,83.00
2022-12-17T14:21:51.498Z,83.10
2022-12-17T14:24:23.159Z,82.90
2022-12-17T14:26:51.605Z,83.00
2022-12-17T14:29:30.435Z,83.90
2022-12-17T14:32:00.309Z,83.80
2022-12-17T14:34:27.459Z,83.20
2022-12-17T14:36:59.717Z,83.40
2022-12-17T14:39:31.457Z,83.40
2022-12-17T14:42:29.530Z,83.50
2022-12-17T14:45:05.453Z,83.60
2022-12-17T14:47:37.602Z,83.60
2022-12-17T14:50:26.932Z,83.70
2022-12-17T14:52:57.754Z,83.80
2022-12-17T14:55:55.428Z,83.90
2022-12-17T14:58:24.144Z,84.10
2022-12-17T15:00:53.736Z,84.10
2022-12-17T15:03:29.842Z,84.10
2022-12-17T15:06:10.123Z,84.10
2022-12-17T15:08:45.061Z,84.10
2022-12-17T15:11:14.136Z,84.00
2022-12-17T15:13:41.228Z,84.10
2022-12-17T15:16:08.087Z,84.00
2022-12-17T15:18:35.218Z,84.00
2022-12-17T15:21:03.248Z,83.90
2022-12-17T15:23:31.386Z,83.80
2022-12-17T15:25:58.092Z,83.80
2022-12-17T15:28:26.069Z,83.70
2022-12-17T15:30:53.122Z,83.80
2022-12-17T15:33:19.890Z,83.80
2022-12-17T15:35:46.581Z,83.90
2022-12-17T15:38:13.634Z,83.80
2022-12-17T15:40:41.071Z,83.90
2022-12-17T15:43:13.420Z,84.00
2022-12-17T15:45:51.448Z,84.00
2022-12-17T15:48:20.682Z,84.00
2022-12-17T15:50:48.279Z,84.00
2022-12-17T15:53:15.051Z,84.10
2022-12-17T15:55:42.316Z,84.10
2022-12-17T15:58:11.444Z,84.20
2022-12-17T16:00:38.287Z,84.10
2022-12-17T16:03:05.231Z,84.20
2022-12-17T16:05:32.035Z,84.20
2022-12-17T16:08:02.076Z,84.20
2022-12-17T16:10:28.976Z,84.20
2022-12-17T16:12:55.630Z,84.30
2022-12-17T16:15:22.266Z,84.20
2022-12-17T16:17:48.870Z,84.20
2022-12-17T16:20:15.666Z,84.20
2022-12-17T16:22:42.314Z,84.30
2022-12-17T16:25:09.200Z,84.20
2022-12-17T16:27:35.817Z,84.30
2022-12-17T16:30:05.497Z,84.40
2022-12-17T16:32:36.696Z,84.30
2022-12-17T16:35:04.804Z,84.20
2022-12-17T16:37:31.563Z,84.30
2022-12-17T16:40:00.158Z,84.20
2022-12-17T16:42:27.718Z,84.10
2022-12-17T16:44:54.372Z,84.10
2022-12-17T16:47:21.010Z,84.80
2022-12-17T16:49:50.387Z,84.80
2022-12-17T16:52:17.063Z,84.30
2022-12-17T16:54:43.792Z,84.30
2022-12-17T16:57:10.428Z,84.00
2022-12-17T16:59:37.063Z,83.90
2022-12-17T17:02:03.834Z,83.80
2022-12-17T17:04:30.848Z,83.80
2022-12-17T17:06:57.684Z,83.70
2022-12-17T17:09:25.673Z,83.90
2022-12-17T17:11:56.367Z,83.90
2022-12-17T17:14:23.982Z,84.00
2022-12-17T17:16:51.115Z,83.80
2022-12-17T17:19:18.391Z,83.70
2022-12-17T17:21:52.717Z,83.70
2022-12-17T17:24:22.123Z,83.60
2022-12-17T17:26:50.668Z,83.60
2022-12-17T17:29:17.977Z,83.50
2022-12-17T17:34:31.615Z,83.20
2022-12-17T17:36:58.536Z,83.00
2022-12-17T17:39:25.745Z,82.90
2022-12-17T17:41:52.400Z,82.70
2022-12-17T17:44:21.663Z,82.60
2022-12-17T17:46:48.382Z,82.80
2022-12-17T17:49:15.299Z,82.70
2022-12-17T17:54:30.905Z,83.00
2022-12-17T17:56:57.609Z,83.00
2022-12-17T17:59:32.580Z,83.00
2022-12-17T18:02:01.008Z,82.70
2022-12-17T18:04:28.158Z,82.30
2022-12-17T18:09:41.729Z,82.20
2022-12-17T18:12:26.939Z,82.20
2022-12-17T18:17:40.438Z,82.20
2022-12-17T18:20:07.597Z,82.50
2022-12-17T18:22:34.544Z,82.30
2022-12-17T18:25:02.933Z,82.40
2022-12-17T18:27:29.582Z,82.20
2022-12-17T18:29:56.413Z,81.80
2022-12-17T18:32:23.084Z,81.50
2022-12-17T18:34:49.814Z,81.60
2022-12-17T18:37:16.545Z,82.40
2022-12-17T18:39:43.302Z,81.80
2022-12-17T18:42:28.470Z,81.90
2022-12-17T18:44:55.167Z,81.70
2022-12-17T18:47:21.921Z,81.50
2022-12-17T18:49:48.594Z,81.20
2022-12-17T18:52:17.199Z,81.10
2022-12-17T18:54:44.206Z,80.90
2022-12-17T18:57:11.239Z,81.10
2022-12-17T18:59:38.495Z,81.20
2022-12-17T19:02:05.547Z,81.30
2022-12-17T19:04:33.055Z,81.10
2022-12-17T19:07:00.094Z,81.30
2022-12-17T19:09:35.544Z,81.40
2022-12-17T19:12:06.358Z,81.40
2022-12-17T19:14:33.719Z,82.10
2022-12-17T19:17:00.491Z,81.10
2022-12-17T19:19:27.597Z,80.80
2022-12-17T19:21:55.254Z,80.80
2022-12-17T19:24:22.873Z,80.90
2022-12-17T19:26:49.813Z,80.80
2022-12-17T19:29:17.895Z,80.70
2022-12-17T19:31:45.633Z,80.60
2022-12-17T19:34:15.154Z,80.70
2022-12-17T19:36:42.618Z,80.90
2022-12-17T19:39:12.945Z,80.80
2022-12-17T19:41:39.984Z,80.20
2022-12-17T19:44:10.830Z,80.40
2022-12-17T19:46:37.463Z,80.30
2022-12-17T19:49:04.651Z,80.50
2022-12-17T19:51:32.963Z,80.40
2022-12-17T19:54:06.383Z,80.20
2022-12-17T19:56:35.607Z,80.10
2022-12-17T19:59:07.016Z,80.00
2022-12-17T20:01:36.728Z,80.40
2022-12-17T20:04:04.667Z,80.50
2022-12-17T20:06:33.710Z,80.50
2022-12-17T20:09:03.008Z,80.40
2022-12-17T20:11:32.930Z,80.20
2022-12-17T20:14:13.562Z,80.40
2022-12-17T20:16:44.777Z,79.90
2022-12-17T20:19:33.302Z,80.10
2022-12-17T20:22:03.373Z,80.20
2022-12-17T20:24:31.863Z,80.30
2022-12-17T20:27:00.026Z,80.40
2022-12-17T20:29:27.334Z,80.20
2022-12-17T20:31:54.524Z,79.90
2022-12-17T20:34:24.855Z,80.10
2022-12-17T20:36:52.457Z,80.10
2022-12-17T20:39:25.943Z,80.10
2022-12-17T20:41:53.686Z,80.30
2022-12-17T20:44:20.375Z,80.30
2022-12-17T20:46:47.037Z,80.40
2022-12-17T20:49:14.749Z,80.40
2022-12-17T20:51:41.929Z,80.30
2022-12-17T20:54:10.474Z,80.30
2022-12-17T20:56:40.693Z,80.30
2022-12-17T20:59:09.273Z,80.40
2022-12-17T21:01:37.445Z,80.70
2022-12-17T21:04:07.331Z,81.00
2022-12-17T21:06:47.927Z,80.80
2022-12-17T21:09:18.456Z,80.70
2022-12-17T21:11:45.159Z,80.30
2022-12-17T21:14:14.953Z,79.90
2022-12-17T21:16:43.114Z,80.20
2022-12-17T21:19:13.592Z,80.00
2022-12-17T21:21:40.474Z,80.10
2022-12-17T21:24:08.783Z,79.80
2022-12-17T21:26:38.102Z,80.00
2022-12-17T21:29:06.486Z,80.10
2022-12-17T21:31:37.446Z,80.00
2022-12-17T21:34:05.806Z,80.00
2022-12-17T21:36:34.242Z,79.90
2022-12-17T21:39:02.512Z,79.80
2022-12-17T21:41:43.174Z,79.70
2022-12-17T21:44:13.246Z,80.00
2022-12-17T21:46:41.334Z,80.00
2022-12-17T21:49:08.033Z,79.90
2022-12-17T21:51:35.254Z,80.20
2022-12-17T21:54:08.381Z,80.10
2022-12-17T21:56:36.521Z,80.10
2022-12-17T21:59:03.263Z,80.80
2022-12-17T22:01:33.022Z,79.90
2022-12-17T22:04:03.584Z,80.00
2022-12-17T22:06:37.276Z,80.10
2022-12-17T22:09:25.258Z,80.20
2022-12-17T22:12:22.866Z,80.20
2022-12-17T22:14:49.677Z,80.00
2022-12-17T22:17:16.487Z,79.80
2022-12-17T22:19:43.168Z,79.70
2022-12-17T22:22:09.790Z,79.90
2022-12-17T22:24:36.879Z,80.40
2022-12-17T22:27:04.250Z,80.40
2022-12-17T22:29:54.486Z,80.30
2022-12-17T22:32:39.550Z,79.90
2022-12-17T22:36:30.338Z,80.00
2022-12-17T22:41:07.782Z,80.20
2022-12-17T22:44:32.293Z,79.80
2022-12-17T22:44:35.710Z,79.70
2022-12-17T22:46:18.060Z,79.60
2022-12-17T22:48:44.955Z,79.90
2022-12-17T22:51:20.244Z,80.30
2022-12-17T22:53:55.927Z,80.50
2022-12-17T22:56:42.863Z,80.40
2022-12-17T22:59:19.506Z,80.10
2022-12-17T23:01:46.384Z,80.10
2022-12-17T23:04:15.664Z,79.90
2022-12-17T23:06:47.560Z,79.90
2022-12-17T23:09:15.823Z,80.00
2022-12-17T23:11:42.515Z,80.60
2022-12-17T23:14:09.214Z,80.50
2022-12-17T23:16:38.693Z,80.50
2022-12-17T23:19:06.212Z,80.40
2022-12-17T23:21:33.243Z,80.40
2022-12-17T23:23:59.938Z,80.50
2022-12-17T23:26:30.715Z,80.40
2022-12-17T23:28:59.447Z,80.10
2022-12-17T23:31:28.708Z,80.00
2022-12-17T23:33:55.499Z,80.10
2022-12-17T23:36:24.149Z,80.30
2022-12-17T23:38:51.570Z,80.30
2022-12-17T23:41:23.833Z,80.40
2022-12-17T23:43:50.886Z,80.20
2022-12-17T23:46:18.915Z,80.30
2022-12-17T23:48:46.878Z,80.50
2022-12-17T23:51:15.814Z,80.60
2022-12-17T23:53:43.456Z,80.60
2022-12-17T23:56:22.486Z,81.20
2022-12-17T23:58:53.900Z,80.80
